Time;durP1;ratioP1;P1;durP2;ratioP2;P2;SDS_P1;SDS_P2;PMS_P1;PMS_P2;Temp;Humidity;BMP_temperature;BMP_pressure;BME280_temperature;BME280_humidity;BME280_pressure;Samples;Min_cycle;Max_cycle;Signal;HPM_P1;HPM_P2
2022/08/03 00:00:07;;;;;;;6.25;1.80;;;;;;;25.08;47.03;94972.94;4994663;28;20045;-76
2022/08/03 00:02:32;;;;;;;2.30;1.00;;;;;;;25.06;47.06;94969.25;4983854;28;20057;-77
2022/08/03 00:04:58;;;;;;;4.00;1.30;;;;;;;25.05;47.38;94973.22;4989193;28;20034;-68
2022/08/03 00:07:23;;;;;;;4.10;1.40;;;;;;;25.02;47.54;94961.38;4986452;28;20023;-69
2022/08/03 00:09:49;;;;;;;1.58;1.23;;;;;;;24.97;47.14;94962.16;4991432;28;20038;-66
2022/08/03 00:12:16;;;;;;;2.45;1.40;;;;;;;24.98;47.57;94962.91;4989684;28;20050;-65
2022/08/03 00:14:41;;;;;;;1.67;1.10;;;;;;;24.92;47.36;94960.25;5008879;28;20056;-74
2022/08/03 00:17:07;;;;;;;2.45;1.30;;;;;;;24.89;47.45;94957.81;5021155;28;20037;-65
2022/08/03 00:19:32;;;;;;;1.77;1.00;;;;;;;24.92;47.68;94965.72;5013506;28;20106;-65
2022/08/03 00:21:58;;;;;;;2.72;1.40;;;;;;;24.90;47.68;94962.78;4991251;28;20022;-68
2022/08/03 00:24:23;;;;;;;2.38;1.30;;;;;;;24.90;47.79;94962.78;4996518;28;20022;-69
2022/08/03 00:26:49;;;;;;;3.78;1.15;;;;;;;24.83;48.10;94963.38;4982841;28;20042;-64
2022/08/03 00:29:14;;;;;;;3.17;1.40;;;;;;;24.84;47.81;94964.84;4983155;28;20046;-67
2022/08/03 00:31:39;;;;;;;2.40;1.10;;;;;;;24.86;47.93;94962.31;4982289;28;20043;-71
2022/08/03 00:34:05;;;;;;;2.78;1.08;;;;;;;24.82;48.17;94961.88;4983740;28;20038;-64
2022/08/03 00:36:30;;;;;;;2.53;1.20;;;;;;;24.81;48.39;94964.41;4982579;28;20519;-74
2022/08/03 00:38:56;;;;;;;5.82;2.42;;;;;;;24.79;48.11;94961.47;4985572;28;20041;-64
2022/08/03 00:41:21;;;;;;;3.03;1.50;;;;;;;24.77;48.59;94958.50;4986203;28;20046;-69
2022/08/03 00:43:47;;;;;;;3.50;1.70;;;;;;;24.75;47.94;94961.03;4982674;28;20062;-67
2022/08/03 00:46:12;;;;;;;2.28;1.30;;;;;;;24.73;48.29;94963.53;4982759;28;20595;-73
2022/08/03 00:48:38;;;;;;;3.50;1.50;;;;;;;24.73;48.26;94966.28;4988975;28;20408;-73
2022/08/03 00:51:03;;;;;;;2.15;1.48;;;;;;;24.67;48.10;94960.16;4990670;28;20520;-76
2022/08/03 00:53:29;;;;;;;1.80;1.20;;;;;;;24.67;48.53;94954.69;4982215;28;20058;-68
2022/08/03 00:55:54;;;;;;;2.28;1.30;;;;;;;24.63;48.11;94965.16;4988143;28;20057;-70
2022/08/03 00:58:20;;;;;;;1.77;1.30;;;;;;;24.63;47.88;94965.16;4982084;28;20028;-74
2022/08/03 01:00:45;;;;;;;2.38;1.30;;;;;;;24.62;48.27;94958.22;5021803;28;20254;-66
2022/08/03 01:03:11;;;;;;;3.30;1.50;;;;;;;24.63;48.12;94959.69;5008489;28;20038;-69
2022/08/03 01:05:48;;;;;;;2.22;1.25;;;;;;;24.59;48.46;94960.00;5017864;28;20405;-64
2022/08/03 01:08:29;;;;;;;3.72;1.42;;;;;;;24.34;48.61;94920.41;5026329;28;20045;-66
2022/08/03 01:11:25;;;;;;;3.03;1.40;;;;;;;24.57;48.50;94959.03;5005468;28;20030;-63
2022/08/03 01:14:17;;;;;;;2.05;1.30;;;;;;;24.54;48.76;94957.34;5013087;28;20064;-63
2022/08/03 01:16:44;;;;;;;2.97;1.30;;;;;;;24.52;48.67;94948.94;5023370;28;20053;-63
2022/08/03 01:19:31;;;;;;;2.42;1.30;;;;;;;24.51;48.64;94950.19;5024707;28;20165;-63
2022/08/03 01:22:12;;;;;;;4.00;1.38;;;;;;;24.47;48.98;94941.59;5026461;28;20038;-76
2022/08/03 01:24:55;;;;;;;2.08;1.20;;;;;;;24.47;48.78;94947.78;5026115;28;20059;-73
2022/08/03 01:27:24;;;;;;;2.50;1.30;;;;;;;24.37;48.59;94937.75;5007299;28;20041;-68
2022/08/03 01:29:59;;;;;;;2.07;1.20;;;;;;;24.40;49.27;94947.63;5025561;28;20044;-67
2022/08/03 01:32:38;;;;;;;3.08;1.20;;;;;;;24.38;49.22;94950.16;5024500;28;20054;-71
2022/08/03 01:35:08;;;;;;;3.63;1.40;;;;;;;24.40;48.72;94953.09;4994226;28;20504;-67
2022/08/03 01:37:46;;;;;;;1.70;1.30;;;;;;;24.30;48.67;94943.75;5024177;28;20044;-68
2022/08/03 01:40:12;;;;;;;2.75;1.33;;;;;;;24.34;48.93;94947.69;5007674;28;20025;-68
2022/08/03 01:42:38;;;;;;;2.83;1.45;;;;;;;24.32;49.21;94954.91;5006652;28;20069;-68
2022/08/03 01:45:03;;;;;;;3.10;1.25;;;;;;;24.26;49.11;94948.03;5007228;28;20124;-65
2022/08/03 01:47:29;;;;;;;2.22;1.30;;;;;;;24.29;49.39;94953.22;5006778;28;20486;-64
2022/08/03 01:49:54;;;;;;;3.00;1.33;;;;;;;24.23;49.22;94944.38;5025162;28;20041;-75
2022/08/03 01:52:20;;;;;;;2.47;1.42;;;;;;;24.27;49.09;94950.25;5006094;28;20033;-76
2022/08/03 01:54:47;;;;;;;2.72;1.38;;;;;;;24.21;49.33;94946.13;5007473;28;20116;-63
2022/08/03 01:57:12;;;;;;;2.95;1.42;;;;;;;24.27;49.15;94961.16;5023061;28;20041;-69
2022/08/03 01:59:38;;;;;;;3.30;1.60;;;;;;;24.23;49.00;94955.28;5007185;28;20038;-73
2022/08/03 02:02:04;;;;;;;3.63;1.50;;;;;;;24.22;49.45;94953.78;5006544;28;20073;-72
2022/08/03 02:04:29;;;;;;;2.63;1.33;;;;;;;24.20;49.51;94956.31;5024771;28;20034;-71
2022/08/03 02:06:55;;;;;;;3.60;1.70;;;;;;;24.20;49.42;94967.22;5022384;28;20484;-71
2022/08/03 02:09:21;;;;;;;3.15;1.33;;;;;;;24.17;49.35;94960.06;5024188;28;20539;-72
2022/08/03 02:11:47;;;;;;;2.00;1.67;;;;;;;24.15;49.17;94959.84;5006358;28;20041;-68
2022/08/03 02:14:12;;;;;;;5.90;2.28;;;;;;;24.13;49.04;94967.81;5025678;28;20587;-71
2022/08/03 02:16:38;;;;;;;2.75;1.30;;;;;;;24.13;49.65;94962.34;5022676;28;20041;-73
2022/08/03 02:19:05;;;;;;;2.38;1.33;;;;;;;24.07;49.54;94948.03;5025036;28;20021;-71
2022/08/03 02:21:31;;;;;;;2.35;1.30;;;;;;;24.05;49.58;94956.00;5006192;28;20049;-68
2022/08/03 02:23:57;;;;;;;3.85;1.60;;;;;;;24.08;49.40;94954.97;5006703;28;20088;-71
2022/08/03 02:26:22;;;;;;;2.45;1.40;;;;;;;24.06;49.43;94956.72;5023325;28;20582;-73
2022/08/03 02:28:48;;;;;;;2.90;1.60;;;;;;;24.02;49.71;94957.03;5022965;28;20034;-71
2022/08/03 02:31:27;;;;;;;2.28;1.17;;;;;;;24.00;49.79;94948.59;5022848;28;20055;-69
2022/08/03 02:33:54;;;;;;;2.22;1.33;;;;;;;24.03;49.93;94953.03;5007146;28;20091;-64
2022/08/03 02:36:22;;;;;;;2.25;1.20;;;;;;;24.02;49.74;94957.03;5005639;28;20104;-67
2022/08/03 02:38:50;;;;;;;3.88;1.42;;;;;;;23.99;49.41;94952.59;5005668;28;20128;-72
2022/08/03 02:41:16;;;;;;;2.63;1.40;;;;;;;24.00;49.49;94950.59;5022590;28;20493;-73
2022/08/03 02:43:44;;;;;;;2.20;1.20;;;;;;;23.97;49.67;94948.91;5006291;28;20080;-69
2022/08/03 02:46:09;;;;;;;2.25;1.38;;;;;;;23.90;49.65;94944.78;5024041;28;20112;-72
2022/08/03 02:48:35;;;;;;;4.70;1.70;;;;;;;23.96;50.01;94958.34;5022400;28;20041;-72
2022/08/03 02:51:00;;;;;;;2.58;1.30;;;;;;;23.94;49.45;94955.38;5024093;28;20045;-73
2022/08/03 02:53:26;;;;;;;2.20;1.50;;;;;;;23.82;49.55;94939.69;5005797;28;20111;-73
2022/08/03 02:55:51;;;;;;;2.65;1.40;;;;;;;23.91;49.42;94954.41;5024210;28;20507;-75
2022/08/03 02:58:19;;;;;;;2.50;1.20;;;;;;;23.93;49.89;94954.66;5023161;28;20022;-73
2022/08/03 03:00:45;;;;;;;1.95;1.30;;;;;;;23.90;49.53;94955.69;5006769;28;20070;-68
2022/08/03 03:03:10;;;;;;;2.85;1.52;;;;;;;23.88;49.91;94952.75;5005760;28;20128;-72
2022/08/03 03:05:36;;;;;;;2.03;1.52;;;;;;;23.88;49.88;94963.66;5022782;28;20036;-72
2022/08/03 03:08:02;;;;;;;1.70;1.30;;;;;;;23.89;49.53;94965.13;4988660;28;20030;-78
2022/08/03 03:10:27;;;;;;;4.55;1.50;;;;;;;23.87;49.57;94962.16;5023628;28;20032;-77
2022/08/03 03:12:55;;;;;;;2.67;1.50;;;;;;;23.87;49.57;94970.34;5021721;28;20455;-72
2022/08/03 03:15:21;;;;;;;2.42;1.40;;;;;;;23.78;50.02;94963.75;5007203;28;20132;-76
2022/08/03 03:17:48;;;;;;;2.40;1.60;;;;;;;23.86;49.55;94982.50;5005317;28;20040;-76
2022/08/03 03:20:14;;;;;;;3.85;1.55;;;;;;;23.81;49.83;94974.41;5007759;28;20046;-69
2022/08/03 03:22:40;;;;;;;1.70;1.30;;;;;;;23.77;50.10;94984.13;4988966;28;20037;-73
2022/08/03 03:25:05;;;;;;;2.90;1.38;;;;;;;23.77;50.47;94984.13;5005868;28;20018;-72
2022/08/03 03:27:31;;;;;;;1.77;1.20;;;;;;;23.69;50.42;94980.47;5004499;28;20478;-72
2022/08/03 03:29:56;;;;;;;3.58;1.50;;;;;;;23.77;50.35;94989.56;5022716;28;20045;-76
2022/08/03 03:32:22;;;;;;;3.35;1.35;;;;;;;23.77;50.28;94995.75;5005274;28;20421;-76
2022/08/03 03:34:47;;;;;;;4.57;1.40;;;;;;;23.70;50.39;94990.13;5005680;28;20056;-73
2022/08/03 03:37:13;;;;;;;6.22;1.58;;;;;;;23.75;50.54;95002.97;5006623;28;20063;-77
2022/08/03 03:39:38;;;;;;;1.90;1.30;;;;;;;23.72;50.61;94990.34;5024531;28;20034;-78
2022/08/03 03:42:04;;;;;;;2.67;1.70;;;;;;;23.71;50.20;94997.06;5010293;28;20037;-70
2022/08/03 03:44:29;;;;;;;2.67;1.85;;;;;;;23.62;50.19;94989.22;5023664;28;20291;-64
2022/08/03 03:46:58;;;;;;;2.90;1.80;;;;;;;23.68;50.31;95003.53;5005560;28;20041;-70
2022/08/03 03:49:23;;;;;;;2.05;1.40;;;;;;;23.69;50.52;94999.56;5005357;28;20440;-63
2022/08/03 03:51:52;;;;;;;2.17;1.60;;;;;;;23.62;50.38;94994.66;5022789;28;20574;-71
2022/08/03 03:54:18;;;;;;;3.10;2.08;;;;;;;23.69;50.75;95005.00;5005589;28;20059;-67
2022/08/03 03:56:43;;;;;;;2.30;1.40;;;;;;;23.68;50.63;95004.28;5021527;28;20491;-66
2022/08/03 03:59:09;;;;;;;2.75;1.70;;;;;;;23.65;50.74;94999.84;5022988;28;20029;-63
2022/08/03 04:01:34;;;;;;;4.97;1.67;;;;;;;23.66;50.56;95006.78;5022098;28;20064;-70
2022/08/03 04:10:57;;;;;;;2.53;1.38;;;;;;;23.66;50.50;95000.56;5022938;28;20416;-65
2022/08/03 04:12:14;;;;;;;4.38;1.63;;;;;;;23.68;50.71;94998.09;5001817;28;20496;-68
2022/08/03 04:14:39;;;;;;;2.53;1.58;;;;;;;23.70;50.69;94995.59;4985133;28;20148;-70
2022/08/03 04:17:06;;;;;;;2.67;1.40;;;;;;;23.64;50.83;94997.63;4983817;28;20049;-64
2022/08/03 04:19:40;;;;;;;3.00;1.70;;;;;;;23.68;51.01;94995.38;4973929;28;20415;-69
2022/08/03 04:22:08;;;;;;;5.63;2.63;;;;;;;23.61;50.89;94987.72;5000823;28;20030;-63
2022/08/03 04:24:40;;;;;;;4.18;1.83;;;;;;;23.71;50.66;95003.25;5019246;28;20042;-65
2022/08/03 04:27:07;;;;;;;3.08;1.73;;;;;;;23.72;51.10;95004.75;4996903;28;20121;-67
2022/08/03 04:29:32;;;;;;;5.70;2.30;;;;;;;23.62;51.48;94989.22;4992823;28;20118;-69
2022/08/03 04:31:58;;;;;;;3.70;2.45;;;;;;;23.77;51.23;95001.22;4984547;28;20046;-65
2022/08/03 04:34:23;;;;;;;3.45;2.20;;;;;;;23.73;50.86;94991.84;5015726;28;20389;-65
2022/08/03 04:36:49;;;;;;;4.75;2.30;;;;;;;23.70;50.84;94990.13;5021128;28;20041;-64
2022/08/03 04:39:23;;;;;;;4.45;2.00;;;;;;;23.82;50.54;95002.41;5008209;28;20044;-62
2022/08/03 04:41:48;;;;;;;4.05;2.20;;;;;;;23.95;50.85;95003.97;5022395;28;20500;-67
2022/08/03 04:44:14;;;;;;;3.35;1.98;;;;;;;23.95;50.90;95001.25;5025931;28;20095;-71
2022/08/03 04:46:39;;;;;;;3.97;2.40;;;;;;;24.14;50.45;95012.94;4986554;28;20075;-67
2022/08/03 04:49:05;;;;;;;4.55;2.13;;;;;;;24.26;50.22;95019.00;4990372;28;20026;-67
2022/08/03 04:51:30;;;;;;;3.90;2.30;;;;;;;24.36;49.50;95012.69;5022315;28;20104;-70
2022/08/03 04:53:56;;;;;;;5.00;2.15;;;;;;;24.51;49.08;95013.00;5023916;28;20408;-65
2022/08/03 04:56:21;;;;;;;3.58;1.98;;;;;;;24.72;48.71;95011.22;5025060;28;20084;-65
2022/08/03 04:58:47;;;;;;;6.00;2.10;;;;;;;24.86;48.46;95019.69;5009911;28;20037;-67
2022/08/03 05:01:12;;;;;;;4.28;2.35;;;;;;;24.93;48.08;95004.69;5006175;28;20226;-62
2022/08/03 05:03:38;;;;;;;5.78;2.00;;;;;;;24.90;47.96;94994.78;4995091;28;20038;-69
2022/08/03 05:06:04;;;;;;;4.15;2.30;;;;;;;25.12;47.34;95006.16;5006115;28;20120;-64
2022/08/03 05:08:29;;;;;;;3.97;2.22;;;;;;;25.10;46.96;94981.34;5024667;28;20034;-66
2022/08/03 05:10:55;;;;;;;5.47;2.70;;;;;;;25.40;46.75;95009.19;5025289;28;20033;-64
2022/08/03 05:13:21;;;;;;;5.65;2.47;;;;;;;25.59;46.48;95016.06;5026444;28;20515;-73
2022/08/03 05:15:46;;;;;;;3.90;2.53;;;;;;;25.73;46.22;95019.59;5011632;28;20045;-63
2022/08/03 05:18:12;;;;;;;4.55;2.40;;;;;;;25.98;45.79;95035.28;5007737;28;20053;-66
2022/08/03 05:20:37;;;;;;;4.40;2.72;;;;;;;26.06;45.92;95025.91;5022301;28;20060;-73
2022/08/03 05:23:03;;;;;;;3.60;2.40;;;;;;;26.22;45.36;95044.03;5024039;28;20041;-78
2022/08/03 05:25:29;;;;;;;6.25;3.10;;;;;;;26.22;44.65;95033.06;5025678;28;20044;-73
2022/08/03 05:27:54;;;;;;;8.63;3.05;;;;;;;26.46;44.87;95054.78;5025587;28;20083;-63
2022/08/03 05:30:19;;;;;;;4.13;2.80;;;;;;;26.51;44.31;95045.72;5025637;28;20393;-68
2022/08/03 05:32:45;;;;;;;5.10;2.70;;;;;;;26.64;44.16;95038.22;5024929;28;20042;-64
2022/08/03 05:35:10;;;;;;;4.32;2.88;;;;;;;26.73;44.03;95043.25;5025505;28;20479;-70
2022/08/03 05:37:36;;;;;;;4.35;2.97;;;;;;;26.66;43.42;95026.72;5024774;28;20041;-67
2022/08/03 05:40:02;;;;;;;5.05;2.97;;;;;;;26.90;43.49;95047.13;5020930;28;20014;-66
2022/08/03 05:42:28;;;;;;;6.35;2.83;;;;;;;26.97;43.62;95053.97;5013352;28;20064;-64
2022/08/03 05:44:53;;;;;;;4.38;2.70;;;;;;;26.81;43.19;95028.34;5013026;28;20033;-65
2022/08/03 05:47:19;;;;;;;5.57;2.47;;;;;;;27.15;43.01;95056.53;4996444;28;20052;-69
2022/08/03 05:49:44;;;;;;;4.88;3.08;;;;;;;27.21;43.03;95057.13;5014502;28;20873;-69
2022/08/03 05:52:10;;;;;;;5.18;2.60;;;;;;;27.24;43.33;95053.34;5024722;28;20030;-67
2022/08/03 05:54:35;;;;;;;5.70;2.53;;;;;;;27.42;42.86;95057.91;5024499;28;20111;-70
2022/08/03 05:57:01;;;;;;;3.78;2.60;;;;;;;27.44;42.87;95055.34;5024632;28;20115;-62
2022/08/03 05:59:26;;;;;;;6.15;3.08;;;;;;;27.39;42.44;95020.56;5025100;28;20053;-63
2022/08/03 06:01:52;;;;;;;3.65;2.35;;;;;;;27.64;42.13;95057.38;5017536;28;20030;-73
2022/08/03 06:04:18;;;;;;;4.30;2.22;;;;;;;27.64;42.34;95051.88;5017065;28;21149;-64
2022/08/03 06:06:43;;;;;;;2.85;1.90;;;;;;;27.78;41.99;95057.50;5022041;28;20042;-65
2022/08/03 06:09:09;;;;;;;6.03;2.25;;;;;;;27.92;41.26;95064.41;5025348;28;20056;-69
2022/08/03 06:11:35;;;;;;;5.75;3.10;;;;;;;28.01;41.00;95058.44;5025758;28;20049;-70
2022/08/03 06:14:01;;;;;;;5.78;3.03;;;;;;;27.84;41.56;95038.16;5029596;28;20056;-67
2022/08/03 06:16:26;;;;;;;8.13;3.42;;;;;;;27.91;41.14;95027.22;5022601;28;20412;-73
2022/08/03 06:18:51;;;;;;;4.05;2.25;;;;;;;28.13;41.09;95059.63;5027293;28;20026;-68
2022/08/03 06:21:17;;;;;;;3.10;2.17;;;;;;;28.27;40.92;95058.25;5023804;28;20469;-67
2022/08/03 06:23:43;;;;;;;4.75;2.63;;;;;;;28.30;40.36;95062.66;5017241;28;20041;-73
2022/08/03 06:26:09;;;;;;;8.05;2.53;;;;;;;28.25;40.56;95058.03;5011222;28;20157;-73
2022/08/03 06:28:34;;;;;;;4.07;2.67;;;;;;;28.36;40.31;95060.50;5001528;28;20488;-69
2022/08/03 06:31:00;;;;;;;6.40;2.55;;;;;;;28.40;40.50;95060.88;5011495;28;20037;-70
2022/08/03 06:33:26;;;;;;;45.42;30.73;;;;;;;28.31;40.37;95061.38;5022054;28;20061;-73
2022/08/03 06:35:51;;;;;;;5.95;3.08;;;;;;;28.18;40.62;95031.28;4990095;28;20068;-67
2022/08/03 06:38:17;;;;;;;6.55;2.60;;;;;;;28.41;40.68;95057.59;4983968;28;20099;-72
2022/08/03 06:40:42;;;;;;;3.28;2.10;;;;;;;28.55;40.11;95063.69;5014616;28;20042;-70
2022/08/03 06:43:08;;;;;;;4.60;2.50;;;;;;;28.60;39.83;95071.06;4994745;28;20509;-71
2022/08/03 06:45:34;;;;;;;3.60;2.00;;;;;;;28.69;39.73;95054.09;5010287;28;20037;-75
2022/08/03 06:48:04;;;;;;;3.50;2.25;;;;;;;28.68;39.86;95058.13;4997580;28;20050;-75
2022/08/03 06:50:30;;;;;;;8.65;2.30;;;;;;;28.63;39.88;95056.25;5010708;28;20504;-72
2022/08/03 06:52:56;;;;;;;5.03;2.58;;;;;;;28.55;40.01;95045.22;5014552;28;20065;-74
2022/08/03 06:55:21;;;;;;;5.78;2.85;;;;;;;28.49;40.26;95046.63;5003163;28;20460;-76
2022/08/03 06:57:46;;;;;;;8.23;2.85;;;;;;;28.44;40.13;95055.78;5031934;28;20026;-64
2022/08/03 07:00:13;;;;;;;5.70;2.78;;;;;;;28.26;40.36;95037.53;5016864;28;20037;-69
2022/08/03 07:02:39;;;;;;;8.75;3.13;;;;;;;28.28;40.03;95048.72;5012098;28;20100;-76
2022/08/03 07:05:05;;;;;;;7.93;2.90;;;;;;;28.25;40.42;95055.28;4989705;28;20488;-69
2022/08/03 07:07:30;;;;;;;7.63;2.88;;;;;;;28.14;41.09;95050.09;4981553;28;20021;-66
2022/08/03 07:09:56;;;;;;;6.38;3.33;;;;;;;28.06;40.97;95054.78;5015583;28;20172;-67
2022/08/03 07:12:21;;;;;;;8.25;2.70;;;;;;;28.02;41.50;95045.41;4999335;28;20492;-75
2022/08/03 07:14:47;;;;;;;5.95;3.15;;;;;;;27.73;42.22;95022.69;5012331;28;20127;-68
2022/08/03 07:17:12;;;;;;;4.25;2.33;;;;;;;27.91;41.57;95054.69;5015443;28;20520;-67
2022/08/03 07:19:38;;;;;;;8.20;2.85;;;;;;;27.69;41.82;95026.34;5001330;28;20623;-73
2022/08/03 07:22:03;;;;;;;5.65;2.63;;;;;;;27.73;41.40;95050.16;4990908;28;20038;-62
2022/08/03 07:24:29;;;;;;;3.67;2.50;;;;;;;27.73;41.44;95054.16;5002753;28;20030;-65
2022/08/03 07:26:54;;;;;;;13.07;4.25;;;;;;;27.64;41.21;95035.41;5002375;28;20073;-62
2022/08/03 07:29:20;;;;;;;7.07;2.55;;;;;;;27.44;40.37;95028.66;5003831;28;20599;-63
2022/08/03 07:31:45;;;;;;;7.00;2.88;;;;;;;27.46;41.28;95039.09;5002609;28;20080;-64
2022/08/03 07:34:11;;;;;;;7.93;3.17;;;;;;;27.41;41.21;95039.97;5003050;28;20084;-64
2022/08/03 07:36:36;;;;;;;5.60;2.70;;;;;;;27.42;41.33;95058.63;5001924;28;20612;-63
2022/08/03 07:39:03;;;;;;;5.90;2.88;;;;;;;27.34;41.07;95057.09;5002742;28;20045;-64
2022/08/03 07:41:28;;;;;;;7.28;2.70;;;;;;;27.25;41.46;95049.34;5002272;28;20498;-63
2022/08/03 07:43:54;;;;;;;8.38;3.35;;;;;;;27.07;40.73;95022.81;5003047;28;20042;-64
2022/08/03 07:46:19;;;;;;;9.05;3.50;;;;;;;27.27;41.29;95057.75;5001456;28;20033;-73
2022/08/03 07:48:45;;;;;;;8.48;2.85;;;;;;;27.07;41.47;95022.81;5002700;28;20034;-75
2022/08/03 07:51:10;;;;;;;6.28;3.08;;;;;;;27.17;41.87;95059.47;5000467;28;20057;-72
2022/08/03 07:53:35;;;;;;;8.10;2.97;;;;;;;27.17;41.86;95061.47;4994380;28;20053;-67
2022/08/03 07:56:01;;;;;;;47.53;33.63;;;;;;;27.00;42.03;95031.69;4992330;28;20038;-76
2022/08/03 07:58:26;;;;;;;6.50;2.80;;;;;;;27.10;42.01;95054.66;5001087;28;20030;-75
2022/08/03 08:00:52;;;;;;;13.18;5.00;;;;;;;27.22;42.46;95066.84;5002564;28;20390;-63
2022/08/03 08:03:17;;;;;;;7.28;2.60;;;;;;;27.22;41.72;95066.84;5002705;28;20046;-66
2022/08/03 08:05:43;;;;;;;4.65;2.33;;;;;;;27.23;42.22;95068.31;4991759;28;20035;-67
2022/08/03 08:08:09;;;;;;;5.00;2.13;;;;;;;27.26;41.36;95061.75;4994068;28;20057;-71
2022/08/03 08:10:34;;;;;;;6.72;2.25;;;;;;;26.99;41.23;95035.69;5000177;28;20369;-71
2022/08/03 08:13:00;;;;;;;5.90;2.45;;;;;;;27.21;41.42;95065.38;4989017;28;20108;-62
2022/08/03 08:15:26;;;;;;;6.25;2.20;;;;;;;27.24;41.43;95069.78;4999324;28;20127;-66
2022/08/03 08:17:53;;;;;;;6.38;2.20;;;;;;;27.18;40.89;95060.22;5001148;28;20038;-62
2022/08/03 08:20:23;;;;;;;6.05;2.55;;;;;;;27.18;40.75;95060.94;5001874;28;20052;-72
2022/08/03 08:22:49;;;;;;;4.47;2.17;;;;;;;27.11;41.49;95039.66;4991395;28;20037;-73
2022/08/03 08:25:14;;;;;;;9.10;2.53;;;;;;;27.10;42.09;95049.19;4999566;28;20026;-70
2022/08/03 08:27:44;;;;;;;5.05;2.13;;;;;;;27.20;41.75;95058.41;5000745;28;20041;-76
2022/08/03 08:30:10;;;;;;;5.00;2.25;;;;;;;27.19;41.54;95054.22;5015138;28;20144;-73
2022/08/03 08:32:36;;;;;;;3.90;2.15;;;;;;;26.97;41.72;95030.03;4995187;28;20079;-73
2022/08/03 08:35:03;;;;;;;6.68;2.40;;;;;;;27.17;42.19;95051.25;5013070;28;20452;-68
2022/08/03 08:37:28;;;;;;;5.45;2.00;;;;;;;26.95;41.87;95005.16;4996928;28;20027;-65
2022/08/03 08:39:55;;;;;;;3.60;2.08;;;;;;;27.17;41.91;95034.78;5004237;28;20029;-64
2022/08/03 08:42:20;;;;;;;9.55;2.45;;;;;;;27.25;42.27;95043.84;5000471;28;20041;-61
2022/08/03 08:44:46;;;;;;;4.78;2.10;;;;;;;27.33;42.16;95063.84;4998126;28;20026;-72
2022/08/03 08:47:11;;;;;;;4.47;1.90;;;;;;;27.36;41.89;95062.78;4995134;28;20073;-66
2022/08/03 08:49:37;;;;;;;3.75;1.85;;;;;;;27.36;41.80;95060.03;4986012;28;20103;-71
2022/08/03 08:52:03;;;;;;;6.10;2.33;;;;;;;27.36;42.10;95060.03;5017925;28;20258;-67
2022/08/03 08:54:28;;;;;;;2.72;1.70;;;;;;;27.29;41.25;95044.22;5003461;28;20396;-70
2022/08/03 08:56:54;;;;;;;6.85;1.95;;;;;;;27.38;41.66;95046.50;5003938;28;20757;-68
2022/08/03 08:59:19;;;;;;;4.22;2.00;;;;;;;27.37;42.04;95051.28;5019569;28;20040;-63
2022/08/03 09:01:45;;;;;;;3.60;2.28;;;;;;;27.41;41.02;95048.19;5009643;28;20033;-65
2022/08/03 09:04:10;;;;;;;4.57;1.73;;;;;;;27.37;40.81;95039.56;5020508;28;20036;-65
2022/08/03 09:06:35;;;;;;;3.20;1.80;;;;;;;27.35;41.51;95036.63;5016132;28;20042;-69
2022/08/03 09:09:01;;;;;;;3.42;1.70;;;;;;;27.41;41.44;95046.19;5002811;28;20104;-70
2022/08/03 09:11:26;;;;;;;3.03;2.05;;;;;;;27.41;40.72;95045.44;5002209;28;20046;-70
2022/08/03 09:13:52;;;;;;;3.65;1.80;;;;;;;27.40;41.32;95039.22;5002916;28;20527;-66
2022/08/03 09:16:19;;;;;;;4.25;1.60;;;;;;;27.43;41.19;95053.91;5002210;28;20026;-65
2022/08/03 09:18:50;;;;;;;2.65;1.67;;;;;;;27.44;41.39;95049.84;5003574;28;20026;-66
2022/08/03 09:21:20;;;;;;;5.30;1.80;;;;;;;27.44;40.91;95044.38;5002623;28;20133;-71
2022/08/03 09:23:49;;;;;;;3.55;1.70;;;;;;;27.44;41.19;95044.38;5003615;28;20112;-66
2022/08/03 09:26:21;;;;;;;3.38;1.70;;;;;;;27.45;41.21;95037.63;5005595;28;20053;-66
2022/08/03 09:28:46;;;;;;;3.47;1.67;;;;;;;27.44;41.22;95041.63;5004947;28;20041;-67
2022/08/03 09:31:12;;;;;;;2.30;1.70;;;;;;;27.46;40.63;95041.84;5006149;28;20519;-70
2022/08/03 09:33:46;;;;;;;2.35;1.48;;;;;;;27.47;40.88;95040.56;5005192;28;20045;-75
2022/08/03 09:36:49;;;;;;;2.72;1.63;;;;;;;27.50;40.14;95031.28;5006426;28;20072;-76
2022/08/03 09:39:15;;;;;;;2.70;1.58;;;;;;;27.50;40.68;95042.25;5004075;28;20128;-74
2022/08/03 09:41:47;;;;;;;2.40;1.85;;;;;;;27.50;40.94;95036.78;5004909;28;20513;-75
2022/08/03 09:44:12;;;;;;;2.28;1.77;;;;;;;27.50;40.73;95039.53;5003289;28;20068;-72
2022/08/03 09:46:54;;;;;;;3.83;1.70;;;;;;;27.54;40.98;95037.19;4999874;28;20042;-65
2022/08/03 09:49:20;;;;;;;4.00;1.70;;;;;;;27.55;40.35;95038.63;5005686;28;20508;-65
2022/08/03 09:51:46;;;;;;;4.20;1.83;;;;;;;27.58;41.06;95032.09;5000398;28;20034;-67
2022/08/03 09:54:11;;;;;;;3.38;1.55;;;;;;;27.62;40.70;95032.50;5001906;28;20493;-65
2022/08/03 09:56:46;;;;;;;3.58;1.80;;;;;;;27.65;40.96;95036.91;5003277;28;20065;-64
2022/08/03 09:59:13;;;;;;;5.20;2.00;;;;;;;27.70;41.49;95033.28;5002434;28;20049;-67
2022/08/03 10:01:43;;;;;;;2.30;1.52;;;;;;;27.61;40.79;95009.81;5007493;28;20042;-61
2022/08/03 10:04:13;;;;;;;4.55;1.50;;;;;;;27.87;40.67;95032.31;4998812;28;20093;-69
2022/08/03 10:06:38;;;;;;;2.85;1.80;;;;;;;27.97;40.27;95018.84;5003863;28;20121;-75
2022/08/03 10:09:14;;;;;;;2.10;1.50;;;;;;;28.03;39.89;95006.44;5004580;28;20066;-74
2022/08/03 10:11:40;;;;;;;2.60;1.58;;;;;;;28.11;39.80;95004.50;5000692;28;20575;-70
2022/08/03 10:14:07;;;;;;;2.95;1.75;;;;;;;28.32;38.92;95014.13;5023159;28;20061;-66
2022/08/03 10:16:36;;;;;;;3.17;1.60;;;;;;;28.56;39.34;95023.97;5003603;28;20022;-68
2022/08/03 10:19:03;;;;;;;3.43;1.47;;;;;;;28.53;38.63;95008.56;5005389;28;20501;-70
2022/08/03 10:21:34;;;;;;;2.53;1.80;;;;;;;28.74;38.69;95013.44;5004630;28;20041;-68
2022/08/03 10:24:04;;;;;;;4.80;1.58;;;;;;;28.92;38.30;95028.16;5004118;28;20033;-65
2022/08/03 10:26:34;;;;;;;2.88;1.67;;;;;;;29.04;37.99;95024.50;5004942;28;20034;-64
2022/08/03 10:29:00;;;;;;;;;;;;;;;29.19;37.89;95019.03;5005622;28;20045;-66
2022/08/03 10:31:25;;;;;;;3.10;1.50;;;;;;;29.24;37.74;94993.41;5005177;28;20088;-71
2022/08/03 10:33:51;;;;;;;3.42;1.70;;;;;;;29.53;37.72;94997.47;4986971;28;20580;-68
2022/08/03 10:36:17;;;;;;;2.97;1.50;;;;;;;29.58;37.37;94994.53;4998927;28;20046;-65
2022/08/03 10:38:48;;;;;;;4.60;1.60;;;;;;;29.78;37.31;94991.59;4986238;28;20034;-65
2022/08/03 10:41:15;;;;;;;3.47;1.40;;;;;;;29.82;37.32;94996.75;5002247;28;20049;-64
2022/08/03 10:43:49;;;;;;;5.07;1.60;;;;;;;29.91;36.98;95002.44;5002668;28;20045;-65
2022/08/03 10:46:16;;;;;;;2.20;1.42;;;;;;;29.84;36.39;94967.38;5002131;28;20203;-67
2022/08/03 10:48:42;;;;;;;3.60;2.13;;;;;;;29.85;36.41;94968.09;5002425;28;20128;-65
2022/08/03 10:51:07;;;;;;;3.88;2.20;;;;;;;30.14;37.12;95000.38;5005903;28;20048;-62
2022/08/03 10:53:41;;;;;;;6.70;3.25;;;;;;;30.24;35.85;95004.03;5019734;28;20562;-70
2022/08/03 10:58:57;;;;;;;4.30;3.00;;;;;;;30.20;36.12;94976.09;5011443;28;20832;-63
2022/08/03 11:02:01;;;;;;;8.07;4.00;;;;;;;30.32;36.40;94999.94;5014034;28;20026;-65
2022/08/03 11:04:28;;;;;;;9.70;4.72;;;;;;;30.28;36.33;95004.38;5008175;28;20050;-64
2022/08/03 11:07:18;;;;;;;7.45;4.03;;;;;;;30.29;36.54;95000.34;5012375;28;20026;-72
2022/08/03 11:09:48;;;;;;;7.63;4.10;;;;;;;30.23;35.88;95002.56;5009135;28;20057;-69
2022/08/03 11:12:30;;;;;;;8.68;4.43;;;;;;;30.13;36.26;94990.63;5020771;28;20496;-63
2022/08/03 11:14:57;;;;;;;10.68;4.75;;;;;;;30.06;36.59;94983.13;5022069;28;20586;-65
2022/08/03 11:17:22;;;;;;;9.02;4.93;;;;;;;29.69;36.56;94937.06;5016327;28;20524;-63
2022/08/03 11:19:49;;;;;;;10.00;5.75;;;;;;;29.88;36.45;94962.22;5014398;28;20038;-67
2022/08/03 11:22:15;;;;;;;8.05;4.25;;;;;;;29.86;36.60;94964.78;5003614;28;20076;-65
2022/08/03 11:24:46;;;;;;;7.32;3.95;;;;;;;29.84;36.68;94983.16;5001804;28;20064;-73
2022/08/03 11:27:20;;;;;;;9.90;5.10;;;;;;;29.75;36.63;94967.91;5002806;28;20045;-73
2022/08/03 11:30:05;;;;;;;10.52;5.18;;;;;;;29.68;37.22;94968.63;5002768;28;20032;-67
2022/08/03 11:32:37;;;;;;;10.25;5.90;;;;;;;29.62;37.03;94969.38;4999001;28;20701;-70
2022/08/03 11:35:22;;;;;;;8.90;5.18;;;;;;;29.57;37.06;94964.81;5002780;28;20049;-76
2022/08/03 11:37:53;;;;;;;6.13;3.60;;;;;;;29.52;37.13;94969.22;5003802;28;20046;-64
2022/08/03 11:40:38;;;;;;;7.38;4.43;;;;;;;29.48;37.31;94959.88;5002718;28;20457;-74
2022/08/03 11:43:34;;;;;;;7.03;3.75;;;;;;;29.40;37.48;94956.38;4995847;28;20044;-76